Time;durP1;ratioP1;P1;durP2;ratioP2;P2;SDS_P1;SDS_P2;PMS_P1;PMS_P2;Temp;Humidity;BMP_temperature;BMP_pressure;BME280_temperature;BME280_humidity;BME280_pressure;Samples;Min_cycle;Max_cycle;Signal;HPM_P1;HPM_P2
2022/01/16 00:04:46;;;;;;;48.15;23.02;;;;;;;2.42;100.00;102265.41;4981373;28;20050;-74
2022/01/16 00:07:14;;;;;;;57.10;25.58;;;;;;;2.33;100.00;102256.25;4979246;28;20428;-73
2022/01/16 00:09:43;;;;;;;55.72;25.55;;;;;;;2.29;100.00;102246.50;4926108;28;20065;-73
2022/01/16 00:12:13;;;;;;;51.38;24.90;;;;;;;2.28;100.00;102236.88;4943290;28;20192;-74
2022/01/16 00:14:41;;;;;;;55.70;24.48;;;;;;;2.24;100.00;102262.63;4982353;28;20050;-75
2022/01/16 00:17:09;;;;;;;56.92;25.40;;;;;;;2.19;100.00;102262.34;4979079;28;20049;-76
2022/01/16 00:19:40;;;;;;;57.08;25.92;;;;;;;2.12;100.00;102266.28;4970045;28;20413;-75
2022/01/16 00:22:13;;;;;;;56.55;24.80;;;;;;;2.09;100.00;102257.41;4987058;28;20046;-75
2022/01/16 00:24:43;;;;;;;53.40;25.70;;;;;;;2.10;100.00;102270.50;4977321;28;20384;-74
2022/01/16 00:27:12;;;;;;;53.58;24.35;;;;;;;2.06;100.00;102275.41;4958207;28;20058;-75
2022/01/16 00:29:40;;;;;;;60.53;26.98;;;;;;;2.05;100.00;102271.03;4974317;28;20050;-74
2022/01/16 00:32:13;;;;;;;55.13;25.13;;;;;;;2.03;100.00;102277.84;4976371;28;20050;-75
2022/01/16 00:34:41;;;;;;;58.33;26.42;;;;;;;2.00;100.00;102272.44;4998497;28;20049;-74
2022/01/16 00:37:11;;;;;;;65.78;29.02;;;;;;;1.95;100.00;102262.66;4997508;28;20098;-74
2022/01/16 00:39:40;;;;;;;68.43;28.98;;;;;;;1.91;100.00;102268.50;4961210;28;20049;-74
2022/01/16 00:42:08;;;;;;;69.40;28.83;;;;;;;1.88;100.00;102263.09;4957284;28;20207;-74
2022/01/16 00:44:37;;;;;;;70.97;30.15;;;;;;;1.86;100.00;102269.00;4962063;28;20046;-74
2022/01/16 00:47:06;;;;;;;72.25;29.25;;;;;;;1.83;100.00;102264.50;4981586;28;20540;-74
2022/01/16 00:49:38;;;;;;;65.45;26.17;;;;;;;1.77;100.00;102247.66;4960786;28;20042;-74
2022/01/16 00:52:09;;;;;;;66.35;28.17;;;;;;;1.70;100.00;102251.56;4947899;28;20250;-74
2022/01/16 00:54:37;;;;;;;72.20;28.00;;;;;;;1.63;100.00;102245.09;4966928;28;20045;-74
2022/01/16 00:57:06;;;;;;;61.33;24.98;;;;;;;1.59;100.00;102247.41;4984620;28;20164;-74
2022/01/16 00:59:35;;;;;;;62.08;27.75;;;;;;;1.55;100.00;102239.44;4951581;28;20039;-74
2022/01/16 01:02:03;;;;;;;62.67;26.98;;;;;;;1.55;100.00;102246.31;4965491;28;20256;-76
2022/01/16 01:04:32;;;;;;;71.13;26.92;;;;;;;1.52;100.00;102235.75;4970762;28;20546;-74
2022/01/16 01:07:00;;;;;;;79.80;28.95;;;;;;;1.45;100.00;102239.63;4966184;28;20375;-74
2022/01/16 01:09:29;;;;;;;74.70;29.55;;;;;;;1.43;100.00;102243.84;4974049;28;20047;-74
2022/01/16 01:12:03;;;;;;;69.85;28.05;;;;;;;1.45;100.00;102225.75;4981985;28;20049;-74
2022/01/16 01:14:52;;;;;;;73.30;27.73;;;;;;;1.44;100.00;102218.78;4964995;28;20069;-75
2022/01/16 01:17:24;;;;;;;68.82;26.40;;;;;;;1.36;100.00;102224.41;4980592;28;20045;-74
2022/01/16 01:19:52;;;;;;;63.65;27.73;;;;;;;1.34;100.00;102251.97;4975110;28;20038;-74
2022/01/16 01:22:21;;;;;;;63.08;25.65;;;;;;;1.31;100.00;102236.19;4968520;28;20042;-75
2022/01/16 01:24:49;;;;;;;55.85;25.08;;;;;;;1.25;100.00;102246.19;4967656;28;20372;-75
2022/01/16 01:27:23;;;;;;;58.03;25.25;;;;;;;1.24;100.00;102238.31;4967772;28;20054;-75
2022/01/16 01:30:01;;;;;;;56.92;23.58;;;;;;;1.22;100.00;102250.28;4960124;28;20047;-76
2022/01/16 01:32:31;;;;;;;56.83;24.75;;;;;;;1.17;100.00;102224.94;4977685;28;20053;-74
2022/01/16 01:35:00;;;;;;;64.88;25.83;;;;;;;1.13;100.00;102228.13;4963433;28;20388;-75
2022/01/16 01:37:29;;;;;;;64.18;26.33;;;;;;;1.14;100.00;102232.53;4951923;28;20058;-74
2022/01/16 01:39:57;;;;;;;74.22;28.88;;;;;;;1.14;100.00;102250.69;4975199;28;20046;-74
2022/01/16 01:42:32;;;;;;;62.20;26.23;;;;;;;1.15;100.00;102244.72;4984467;28;20042;-75
2022/01/16 01:51:03;;;;;;;63.88;26.83;;;;;;;1.09;100.00;102202.75;4998748;28;20035;-76
2022/01/16 01:53:26;;;;;;;71.47;27.88;;;;;;;1.11;100.00;102159.63;4957865;28;20042;-74
2022/01/16 01:55:55;;;;;;;70.30;28.95;;;;;;;1.09;100.00;102156.03;4966493;28;20055;-75
2022/01/16 01:58:23;;;;;;;65.30;26.45;;;;;;;1.04;100.00;102159.16;4978851;28;20046;-74
2022/01/16 02:00:52;;;;;;;68.88;29.90;;;;;;;1.01;100.00;102146.88;4950203;28;20053;-74
2022/01/16 02:05:51;;;;;;;64.93;29.00;;;;;;;1.00;100.00;102170.13;4983240;28;20050;-75
2022/01/16 02:08:20;;;;;;;63.78;28.83;;;;;;;0.97;100.00;102189.91;4966888;28;20263;-74
2022/01/16 02:10:49;;;;;;;63.70;28.65;;;;;;;0.95;100.00;102193.22;4979213;28;20380;-75
2022/01/16 02:13:33;;;;;;;62.15;27.75;;;;;;;0.94;100.00;102191.41;4975307;28;20058;-74
2022/01/16 02:34:53;;;;;;;87.68;33.53;;;;;;;1.01;100.00;102182.34;4982114;28;20050;-74
2022/01/16 02:37:23;;;;;;;93.82;36.03;;;;;;;1.03;100.00;102180.72;4982577;28;20038;-74
2022/01/16 02:39:53;;;;;;;;;;;;;;;1.05;100.00;102180.00;4960727;28;20046;-73
2022/01/16 02:42:27;;;;;;;93.03;34.83;;;;;;;1.10;100.00;102178.63;4961699;28;19922;-75
2022/01/16 02:45:03;;;;;;;88.07;33.97;;;;;;;1.12;100.00;102176.13;4964510;28;20458;-74
2022/01/16 02:47:32;;;;;;;87.57;36.63;;;;;;;1.13;100.00;102163.22;4987206;28;20050;-75
2022/01/16 02:50:23;;;;;;;88.35;35.03;;;;;;;1.16;100.00;102175.50;4971005;28;20061;-74
2022/01/16 02:52:52;;;;;;;85.57;35.13;;;;;;;1.17;100.00;102161.69;4969082;28;20059;-74
2022/01/16 02:55:22;;;;;;;97.78;37.13;;;;;;;1.19;100.00;102161.81;4985786;28;20420;-74
2022/01/16 02:57:52;;;;;;;88.10;36.50;;;;;;;1.18;100.00;102145.34;5002201;28;20053;-74
2022/01/16 03:00:23;;;;;;;85.55;35.08;;;;;;;1.19;100.00;102141.03;4977982;28;20065;-75
2022/01/16 03:02:51;;;;;;;66.32;28.02;;;;;;;1.20;100.00;102145.44;4965474;28;20061;-74
2022/01/16 03:05:20;;;;;;;89.25;35.58;;;;;;;1.18;100.00;102150.53;4956186;28;20050;-75
2022/01/16 03:07:48;;;;;;;92.68;35.47;;;;;;;1.18;100.00;102142.75;4982027;28;20055;-75
2022/01/16 03:12:54;;;;;;;97.93;36.75;;;;;;;1.19;100.00;102122.84;4982910;28;20399;-74
2022/01/16 03:15:23;;;;;;;93.32;36.72;;;;;;;1.17;100.00;102123.69;4986063;28;20049;-74
2022/01/16 03:23:18;;;;;;;93.82;36.42;;;;;;;1.19;100.00;102125.44;4990918;28;20164;-75
2022/01/16 03:25:48;;;;;;;99.32;38.10;;;;;;;1.19;100.00;102125.44;4987461;28;20039;-75
2022/01/16 03:28:18;;;;;;;107.55;37.75;;;;;;;1.20;100.00;102111.69;5002481;28;20047;-75
2022/01/16 03:30:48;;;;;;;104.88;37.20;;;;;;;1.19;100.00;102120.25;4975340;28;20400;-74
2022/01/16 03:33:17;;;;;;;94.70;34.70;;;;;;;1.16;100.00;102114.06;4984074;28;20038;-74
2022/01/16 03:35:47;;;;;;;106.13;38.53;;;;;;;1.16;100.00;102115.78;4961991;28;20042;-74
2022/01/16 03:38:15;;;;;;;103.80;37.63;;;;;;;1.15;100.00;102120.09;4956409;28;20038;-74
2022/01/16 03:40:44;;;;;;;109.03;38.40;;;;;;;1.14;100.00;102105.31;4961533;28;20308;-74
2022/01/16 03:43:14;;;;;;;124.90;40.20;;;;;;;1.16;100.00;102111.47;4981982;28;20255;-74
2022/01/16 03:45:45;;;;;;;117.88;38.72;;;;;;;1.20;100.00;102114.28;4981286;28;20050;-75
2022/01/16 03:48:15;;;;;;;108.25;38.15;;;;;;;1.21;100.00;102114.38;4985283;28;20054;-74
2022/01/16 03:50:44;;;;;;;109.50;38.95;;;;;;;1.20;100.00;102112.56;4974914;28;20037;-73
2022/01/16 03:53:13;;;;;;;110.38;39.95;;;;;;;1.22;100.00;102099.69;4972388;28;20047;-74
2022/01/16 03:55:41;;;;;;;111.00;38.78;;;;;;;1.23;100.00;102104.97;4970928;28;20038;-75
2022/01/16 03:58:09;;;;;;;106.25;39.60;;;;;;;1.25;100.00;102098.19;4983152;28;20043;-75
2022/01/16 04:00:38;;;;;;;107.35;39.03;;;;;;;1.27;100.00;102098.28;4984142;28;20053;-73
2022/01/16 04:03:07;;;;;;;115.03;40.20;;;;;;;1.29;100.00;102100.16;4982933;28;20256;-74
2022/01/16 04:05:35;;;;;;;122.10;42.33;;;;;;;1.29;100.00;102099.25;4990699;28;20038;-73
2022/01/16 04:08:04;;;;;;;121.72;42.58;;;;;;;1.28;100.00;102087.06;4960603;28;20256;-74
2022/01/16 04:10:32;;;;;;;122.82;40.58;;;;;;;1.29;100.00;102094.06;4966255;28;20058;-75
2022/01/16 04:13:03;;;;;;;125.07;42.08;;;;;;;1.30;100.00;102093.25;4983459;28;20050;-74
2022/01/16 04:15:31;;;;;;;108.15;39.22;;;;;;;1.32;100.00;102091.63;4967159;28;20058;-74
2022/01/16 04:18:04;;;;;;;118.22;42.88;;;;;;;1.33;100.00;102073.56;4978321;28;20038;-75
2022/01/16 04:20:34;;;;;;;126.40;41.85;;;;;;;1.33;100.00;102091.75;4954531;28;20058;-75
2022/01/16 04:23:03;;;;;;;128.70;41.60;;;;;;;1.32;100.00;102069.19;4949638;28;20046;-73
2022/01/16 04:25:32;;;;;;;138.23;43.25;;;;;;;1.34;100.00;102087.44;4967010;28;20385;-74
2022/01/16 04:28:01;;;;;;;129.95;44.97;;;;;;;1.36;100.00;102083.22;4981648;28;20054;-74
2022/01/16 04:30:29;;;;;;;126.60;44.22;;;;;;;1.38;100.00;102085.91;4971457;28;20050;-75
2022/01/16 04:32:58;;;;;;;142.35;44.33;;;;;;;1.40;100.00;102069.66;4969122;28;20042;-74
2022/01/16 04:35:26;;;;;;;126.18;43.35;;;;;;;1.40;100.00;102077.44;4983348;28;20275;-74
2022/01/16 04:37:55;;;;;;;124.85;42.55;;;;;;;1.42;100.00;102074.91;4961740;28;20027;-74
2022/01/16 04:40:43;;;;;;;129.38;43.70;;;;;;;1.43;100.00;102077.59;4982243;28;20248;-74
2022/01/16 04:46:02;;;;;;;137.88;44.00;;;;;;;1.44;100.00;102079.41;4985221;28;20392;-74
2022/01/16 04:48:30;;;;;;;146.07;44.40;;;;;;;1.43;100.00;102068.91;4965249;28;20260;-74
2022/01/16 04:50:59;;;;;;;130.38;43.20;;;;;;;1.45;100.00;102073.38;4982286;28;20046;-73
2022/01/16 04:53:27;;;;;;;134.60;44.90;;;;;;;1.48;100.00;102064.91;4956788;28;20699;-76
2022/01/16 04:55:55;;;;;;;129.85;44.28;;;;;;;1.49;100.00;102059.81;4969489;28;20392;-75
2022/01/16 04:58:24;;;;;;;146.15;44.00;;;;;;;1.50;100.00;102056.38;4965785;28;20388;-75
2022/01/16 05:00:54;;;;;;;142.15;41.88;;;;;;;1.50;100.00;102051.19;4965014;28;20046;-74
2022/01/16 05:03:24;;;;;;;149.20;44.25;;;;;;;1.51;100.00;102058.19;4964400;28;20038;-75
2022/01/16 05:05:53;;;;;;;151.50;47.20;;;;;;;1.53;100.00;102053.97;4984280;28;20058;-74
2022/01/16 05:08:22;;;;;;;153.63;44.83;;;;;;;1.54;100.00;102049.66;4963590;28;20060;-74
2022/01/16 05:10:54;;;;;;;153.10;43.28;;;;;;;1.55;100.00;102052.38;4956547;28;20047;-73
2022/01/16 05:18:45;;;;;;;137.50;45.03;;;;;;;1.65;100.00;102019.13;4986022;28;20069;-74
2022/01/16 05:21:14;;;;;;;163.65;47.40;;;;;;;1.65;100.00;101999.22;4979536;28;20058;-74
2022/01/16 05:23:42;;;;;;;142.35;45.05;;;;;;;1.68;100.00;102006.28;4960212;28;20515;-74
2022/01/16 05:26:12;;;;;;;148.65;44.42;;;;;;;1.70;100.00;102002.09;4960167;28;20050;-74
2022/01/16 05:28:40;;;;;;;142.57;43.90;;;;;;;1.71;100.00;102009.09;4965473;28;20264;-76
2022/01/16 05:31:10;;;;;;;153.90;46.33;;;;;;;1.73;100.00;101991.88;4985579;28;20050;-74
2022/01/16 05:33:38;;;;;;;160.02;45.78;;;;;;;1.75;100.00;102003.25;4948955;28;20042;-74
2022/01/16 05:36:07;;;;;;;147.10;45.50;;;;;;;1.77;100.00;101993.84;4968979;28;20043;-74
2022/01/16 05:38:36;;;;;;;157.35;46.03;;;;;;;1.78;100.00;101995.66;4965501;28;20153;-74
2022/01/16 05:41:04;;;;;;;158.00;46.95;;;;;;;1.80;100.00;102003.53;4943644;28;20491;-74
2022/01/16 05:43:32;;;;;;;146.52;45.28;;;;;;;1.80;100.00;101991.41;4936480;28;20232;-74
2022/01/16 05:46:01;;;;;;;145.80;46.92;;;;;;;1.81;100.00;101993.19;4970839;28;20053;-74
2022/01/16 05:48:30;;;;;;;158.20;45.35;;;;;;;1.84;100.00;101995.97;4962440;28;20678;-75
2022/01/16 05:50:58;;;;;;;158.07;45.63;;;;;;;1.87;100.00;101992.66;4968113;28;20055;-74
2022/01/16 05:53:27;;;;;;;141.55;43.75;;;;;;;1.87;100.00;101988.38;4938202;28;20740;-76
2022/01/16 05:55:55;;;;;;;161.82;47.00;;;;;;;1.88;100.00;101995.34;4949379;28;20050;-74
2022/01/16 05:58:24;;;;;;;164.63;45.25;;;;;;;1.91;100.00;101979.00;4940533;28;20407;-74
2022/01/16 06:01:01;;;;;;;155.38;45.72;;;;;;;1.91;100.00;101989.41;4967069;28;20043;-74
2022/01/16 06:03:30;;;;;;;150.85;43.78;;;;;;;1.92;100.00;101986.91;4952419;28;20292;-75
2022/01/16 06:05:59;;;;;;;156.32;44.40;;;;;;;1.95;100.00;101988.81;4953652;28;20085;-73
2022/01/16 06:08:27;;;;;;;156.05;45.00;;;;;;;1.97;100.00;101978.47;4991401;28;20043;-75
2022/01/16 06:10:56;;;;;;;164.35;46.03;;;;;;;1.99;100.00;101962.16;4970749;28;20057;-75
2022/01/16 06:13:25;;;;;;;160.43;45.92;;;;;;;2.01;100.00;101964.84;4936594;28;20058;-75
2022/01/16 06:15:53;;;;;;;149.63;45.35;;;;;;;2.01;100.00;101970.06;4949637;28;20043;-74
2022/01/16 06:18:22;;;;;;;152.35;44.42;;;;;;;2.03;100.00;101968.44;4975043;28;20057;-74
2022/01/16 06:20:51;;;;;;;149.27;46.42;;;;;;;2.06;100.00;101966.91;4966883;28;20046;-74
2022/01/16 06:23:19;;;;;;;155.60;46.15;;;;;;;2.06;100.00;101965.97;4960052;28;20042;-74
2022/01/16 06:25:54;;;;;;;;;;;;;;;2.06;100.00;101971.19;4988268;28;20038;-74
2022/01/16 06:28:28;;;;;;;165.40;44.35;;;;;;;2.07;100.00;101975.59;4952020;28;20252;-75
2022/01/16 06:30:57;;;;;;;171.05;46.40;;;;;;;2.06;100.00;101968.59;4972396;28;20050;-74
2022/01/16 06:33:26;;;;;;;174.57;45.90;;;;;;;2.07;100.00;101973.88;4994319;28;20042;-74
2022/01/16 06:35:54;;;;;;;170.88;46.78;;;;;;;2.09;100.00;101973.97;4971087;28;20054;-74
2022/01/16 06:38:23;;;;;;;180.90;46.30;;;;;;;2.10;100.00;101978.38;4985126;28;20057;-74
2022/01/16 06:40:52;;;;;;;203.25;49.75;;;;;;;2.10;100.00;101983.56;4971473;28;20404;-75
2022/01/16 06:43:21;;;;;;;169.88;45.95;;;;;;;2.10;100.00;101986.16;4962074;28;20042;-74
2022/01/16 06:45:49;;;;;;;180.05;47.03;;;;;;;2.10;100.00;101988.78;4944927;28;20384;-74
2022/01/16 06:48:18;;;;;;;178.65;48.15;;;;;;;2.11;100.00;101995.75;4993768;28;20051;-74
2022/01/16 06:50:46;;;;;;;192.07;51.70;;;;;;;2.12;100.00;101997.56;4969158;28;20077;-74
2022/01/16 06:53:15;;;;;;;175.75;48.38;;;;;;;2.16;100.00;101991.72;4964156;28;20607;-74
2022/01/16 06:55:43;;;;;;;157.25;45.13;;;;;;;2.16;100.00;101986.50;4968815;28;20296;-74
2022/01/16 06:58:15;;;;;;;178.02;47.22;;;;;;;2.19;100.00;101994.47;4988905;28;20046;-74
2022/01/16 07:00:44;;;;;;;191.60;51.63;;;;;;;2.21;100.00;101991.94;4959863;28;20051;-74
2022/01/16 07:03:14;;;;;;;178.18;48.17;;;;;;;2.24;100.00;102008.63;4966110;28;20411;-74
2022/01/16 07:05:43;;;;;;;162.25;45.50;;;;;;;2.25;100.00;102007.81;4984291;28;20035;-75
2022/01/16 07:08:12;;;;;;;176.07;46.78;;;;;;;2.26;100.00;102013.91;4986814;28;20415;-74
2022/01/16 07:10:40;;;;;;;163.93;46.03;;;;;;;2.28;100.00;102010.56;4968444;28;20603;-74
2022/01/16 07:13:08;;;;;;;183.95;49.13;;;;;;;2.30;100.00;102006.34;4976619;28;20526;-75
2022/01/16 07:15:37;;;;;;;186.55;49.13;;;;;;;2.31;100.00;102002.06;4959446;28;20053;-75
2022/01/16 07:18:05;;;;;;;197.55;51.53;;;;;;;2.32;100.00;101999.53;4986624;28;20042;-74
2022/01/16 07:20:34;;;;;;;199.32;51.58;;;;;;;2.34;100.00;101997.94;4981276;28;20291;-74
2022/01/16 07:23:02;;;;;;;193.68;50.90;;;;;;;2.37;100.00;102002.41;4979299;28;20392;-74
2022/01/16 07:25:31;;;;;;;198.32;51.65;;;;;;;2.39;100.00;101992.09;4980841;28;20294;-74
2022/01/16 07:28:00;;;;;;;186.57;52.08;;;;;;;2.41;100.00;102001.75;4986826;28;20053;-75
2022/01/16 07:30:28;;;;;;;185.38;49.97;;;;;;;2.43;100.00;102009.66;4958621;28;20062;-76
2022/01/16 07:32:57;;;;;;;180.45;51.58;;;;;;;2.46;100.00;102015.91;4958071;28;20377;-74
2022/01/16 07:35:26;;;;;;;203.95;53.97;;;;;;;2.48;100.00;102014.28;4981950;28;20042;-74
2022/01/16 07:38:08;;;;;;;171.40;49.88;;;;;;;2.50;100.00;102027.38;4970174;28;20073;-75
2022/01/16 07:40:37;;;;;;;188.00;54.88;;;;;;;2.53;100.00;102037.94;4983155;28;20051;-74
2022/01/16 07:43:09;;;;;;;183.75;51.58;;;;;;;2.54;100.00;102040.63;4959598;28;20050;-75
2022/01/16 07:45:37;;;;;;;185.63;52.28;;;;;;;2.57;100.00;102032.13;4941459;28;20104;-74
2022/01/16 07:48:07;;;;;;;204.23;54.90;;;;;;;2.57;100.00;102029.53;5000249;28;20415;-75
2022/01/16 07:50:37;;;;;;;193.20;52.45;;;;;;;2.60;100.00;102034.88;5000824;28;20244;-75
2022/01/16 07:53:05;;;;;;;192.43;54.53;;;;;;;2.62;100.00;102045.38;4976317;28;20042;-75
2022/01/16 07:55:35;;;;;;;188.07;53.80;;;;;;;2.63;100.00;102044.56;4983130;28;20064;-74
2022/01/16 07:58:04;;;;;;;185.10;53.80;;;;;;;2.65;100.00;102037.75;4986871;28;20054;-74
2022/01/16 08:00:33;;;;;;;167.23;53.35;;;;;;;2.68;100.00;102040.50;4969923;28;20047;-73
2022/01/16 08:03:02;;;;;;;175.80;54.70;;;;;;;2.70;100.00;102037.19;4947473;28;20053;-74
2022/01/16 08:05:34;;;;;;;170.52;52.53;;;;;;;2.73;100.00;102026.91;4966636;28;20275;-74
2022/01/16 08:08:03;;;;;;;176.80;53.10;;;;;;;2.76;100.00;102034.00;4985213;28;20046;-75
2022/01/16 08:10:32;;;;;;;160.25;53.38;;;;;;;2.79;100.00;102026.34;4982242;28;20053;-75
2022/01/16 08:13:01;;;;;;;148.70;52.60;;;;;;;2.83;100.00;102027.41;4976208;28;20053;-75
2022/01/16 08:15:33;;;;;;;137.60;49.05;;;;;;;2.88;100.00;102025.97;4965590;28;20061;-75
2022/01/16 08:18:02;;;;;;;153.70;50.40;;;;;;;2.91;100.00;102034.84;4949237;28;20113;-75
2022/01/16 08:20:31;;;;;;;131.35;49.25;;;;;;;2.96;100.00;102031.56;4981106;28;20061;-74
2022/01/16 08:23:00;;;;;;;123.35;46.55;;;;;;;3.01;100.00;102022.31;4969366;28;20061;-75
2022/01/16 08:25:30;;;;;;;131.45;48.60;;;;;;;3.05;100.00;102021.66;4953438;28;20061;-76
2022/01/16 08:28:01;;;;;;;130.15;49.13;;;;;;;3.07;100.00;102020.91;4986415;28;20046;-75
2022/01/16 08:30:30;;;;;;;126.82;50.55;;;;;;;3.10;100.00;102027.97;4949071;28;20645;-74
2022/01/16 08:32:59;;;;;;;114.25;45.25;;;;;;;3.13;100.00;102012.50;4925052;28;20408;-75
2022/01/16 08:35:28;;;;;;;120.07;47.67;;;;;;;3.13;100.00;102018.59;4965160;28;20176;-75
2022/01/16 08:37:56;;;;;;;111.32;48.22;;;;;;;3.16;100.00;102022.19;4970342;28;20043;-75
2022/01/16 08:40:25;;;;;;;112.40;45.33;;;;;;;3.16;100.00;102027.41;4949408;28;20058;-74
2022/01/16 08:42:54;;;;;;;107.90;44.53;;;;;;;3.16;100.00;102023.09;4959929;28;20035;-74
2022/01/16 08:45:26;;;;;;;111.63;44.85;;;;;;;3.19;100.00;102032.78;4950944;28;20061;-74
2022/01/16 08:48:11;;;;;;;101.15;44.15;;;;;;;3.21;100.00;102032.03;4946694;28;20047;-76
2022/01/16 08:50:43;;;;;;;104.15;44.90;;;;;;;3.24;100.00;102024.38;4962095;28;20148;-75
2022/01/16 08:53:12;;;;;;;102.47;45.35;;;;;;;3.27;100.00;102031.44;4935082;28;20042;-75
2022/01/16 08:55:41;;;;;;;93.30;44.67;;;;;;;3.31;100.00;102025.63;4983460;28;20176;-74
2022/01/16 08:58:10;;;;;;;87.07;40.00;;;;;;;3.36;100.00;102029.31;4952250;28;20512;-75
2022/01/16 09:00:39;;;;;;;90.85;43.47;;;;;;;3.41;100.00;102024.38;4980685;28;20432;-75
2022/01/16 09:03:08;;;;;;;82.53;40.13;;;;;;;3.47;100.00;102035.97;4961383;28;20038;-74
2022/01/16 09:05:36;;;;;;;72.57;37.78;;;;;;;3.54;100.00;102031.09;4964144;28;20050;-75
2022/01/16 09:08:05;;;;;;;87.55;39.67;;;;;;;3.60;100.00;102036.63;4968939;28;20042;-75
2022/01/16 09:10:34;;;;;;;71.32;38.40;;;;;;;3.66;100.00;102039.53;4980980;28;20046;-74
2022/01/16 09:13:03;;;;;;;80.70;37.40;;;;;;;3.72;100.00;102050.25;4964193;28;20045;-74
2022/01/16 09:15:31;;;;;;;64.55;35.30;;;;;;;3.78;100.00;102039.25;4954622;28;20047;-75
2022/01/16 09:18:00;;;;;;;74.97;36.40;;;;;;;3.81;100.00;102045.50;4964252;28;20054;-74
2022/01/16 09:20:29;;;;;;;66.95;35.17;;;;;;;3.85;100.00;102055.28;4960087;28;20038;-75
2022/01/16 09:22:57;;;;;;;65.15;36.90;;;;;;;3.90;100.00;102053.78;4964561;28;20045;-75
2022/01/16 09:25:26;;;;;;;75.75;38.40;;;;;;;3.92;100.00;102056.47;4969208;28;20057;-75
2022/01/16 09:27:54;;;;;;;69.55;37.72;;;;;;;3.94;100.00;102060.06;4981081;28;20069;-75
2022/01/16 09:30:29;;;;;;;68.97;34.97;;;;;;;3.98;100.00;102066.31;4979366;28;20039;-75
2022/01/16 09:32:58;;;;;;;70.65;35.60;;;;;;;4.00;100.00;102064.69;4949033;28;20054;-75
2022/01/16 09:35:26;;;;;;;63.22;35.13;;;;;;;4.03;100.00;102065.72;4950223;28;25417;-75
2022/01/16 09:37:55;;;;;;;61.20;34.05;;;;;;;4.05;100.00;102066.69;4988030;28;20376;-75
2022/01/16 09:40:24;;;;;;;64.10;34.72;;;;;;;4.08;100.00;102064.25;4934326;28;20440;-75
2022/01/16 09:42:53;;;;;;;67.47;36.78;;;;;;;4.10;100.00;102062.63;4983862;28;20053;-75
2022/01/16 09:45:22;;;;;;;64.45;36.05;;;;;;;4.13;100.00;102074.91;4954720;28;20272;-74
2022/01/16 09:47:50;;;;;;;66.45;35.38;;;;;;;4.15;100.00;102086.31;4978658;28;20353;-75
2022/01/16 09:50:23;;;;;;;63.38;35.70;;;;;;;4.17;100.00;102094.22;4926199;28;20058;-76
2022/01/16 09:52:53;;;;;;;64.40;36.45;;;;;;;4.19;100.00;102090.84;4929136;28;20047;-75
2022/01/16 09:55:21;;;;;;;71.88;38.10;;;;;;;4.23;100.00;102087.56;4926436;28;20060;-76
2022/01/16 09:57:51;;;;;;;57.33;37.35;;;;;;;4.28;100.00;102100.84;4927408;29;20060;-74
2022/01/16 10:00:21;;;;;;;64.57;34.55;;;;;;;4.31;100.00;102108.84;4920554;29;20051;-74
2022/01/16 10:02:50;;;;;;;62.83;36.22;;;;;;;4.34;100.00;102092.44;4924502;29;20043;-74
2022/01/16 10:05:26;;;;;;;60.30;34.35;;;;;;;4.37;100.00;102088.25;4912025;28;20517;-74
2022/01/16 10:07:56;;;;;;;64.80;33.88;;;;;;;4.40;100.00;102088.38;4887950;28;20040;-74
2022/01/16 10:10:31;;;;;;;56.75;33.53;;;;;;;4.43;100.00;102098.09;4932280;28;20048;-75
2022/01/16 10:13:06;;;;;;;60.47;32.60;;;;;;;4.46;100.00;102090.41;4950898;28;20062;-74
2022/01/16 10:15:35;;;;;;;58.65;33.13;;;;;;;4.48;100.00;102094.88;4921914;28;20524;-75
2022/01/16 10:18:08;;;;;;;58.17;32.28;;;;;;;4.53;100.00;102097.69;4913357;28;20155;-75
2022/01/16 10:20:43;;;;;;;54.95;30.85;;;;;;;4.56;100.00;102099.59;5252098;23;20313;-74
2022/01/16 10:23:17;;;;;;;53.38;31.33;;;;;;;4.58;100.00;102095.34;4953864;28;20496;-75
2022/01/16 10:25:48;;;;;;;50.83;29.45;;;;;;;4.62;100.00;102099.88;4974248;28;20072;-76
2022/01/16 10:28:17;;;;;;;;;;;;;;;4.65;100.00;102092.16;4998823;28;20050;-73
2022/01/16 10:30:51;;;;;;;60.10;32.72;;;;;;;4.68;100.00;102095.81;4991399;28;20396;-74
2022/01/16 10:33:22;;;;;;;67.47;30.38;;;;;;;4.72;100.00;102096.84;4993651;28;20041;-74
2022/01/16 10:35:54;;;;;;;60.28;31.10;;;;;;;4.77;100.00;102094.47;4961814;28;20055;-74
2022/01/16 10:38:24;;;;;;;51.35;30.90;;;;;;;4.80;100.00;102089.38;4935616;28;20050;-73
2022/01/16 10:40:55;;;;;;;59.75;32.25;;;;;;;4.82;100.00;102092.94;4946290;28;20053;-74
2022/01/16 10:43:40;;;;;;;;;;;;;;;4.82;100.00;102092.94;4963676;28;20053;-74
2022/01/16 10:46:11;;;;;;;59.45;31.50;;;;;;;4.83;100.00;102089.53;4980193;28;20161;-74
2022/01/16 10:49:18;;;;;;;60.67;32.90;;;;;;;4.83;100.00;102087.81;4991170;28;20591;-74
2022/01/16 10:52:05;;;;;;;53.30;31.58;;;;;;;4.84;100.00;102096.56;4991143;28;20053;-74
2022/01/16 10:54:39;;;;;;;52.17;30.35;;;;;;;4.84;100.00;102094.84;4955445;28;20647;-74
2022/01/16 10:57:19;;;;;;;57.13;31.52;;;;;;;4.84;100.00;102100.06;4946786;28;20034;-74
2022/01/16 10:59:48;;;;;;;;;;;;;;;4.86;100.00;102100.13;4993693;28;20058;-74
2022/01/16 11:02:17;;;;;;;62.83;31.25;;;;;;;4.87;100.00;102107.13;4986988;28;19940;-74
2022/01/16 11:04:46;;;;;;;60.72;34.72;;;;;;;4.88;100.00;102106.31;4976268;28;20084;-75
2022/01/16 11:07:15;;;;;;;59.25;32.00;;;;;;;4.90;100.00;102107.28;4962268;28;20044;-74
2022/01/16 11:09:43;;;;;;;62.20;33.15;;;;;;;4.93;100.00;102111.75;4967348;28;20049;-74
2022/01/16 11:12:11;;;;;;;59.53;32.63;;;;;;;4.94;100.00;102109.22;4976836;28;20054;-74
2022/01/16 11:14:40;;;;;;;58.00;33.53;;;;;;;4.97;100.00;102114.59;4969615;28;20072;-75
2022/01/16 11:17:08;;;;;;;62.08;31.10;;;;;;;5.01;100.00;102110.38;4982002;28;20418;-74
2022/01/16 11:19:39;;;;;;;69.45;33.50;;;;;;;5.02;100.00;102113.06;4962258;28;20443;-74
2022/01/16 11:22:12;;;;;;;69.43;33.20;;;;;;;5.07;100.00;102114.19;4929802;28;20134;-74
2022/01/16 11:24:58;;;;;;;66.07;33.45;;;;;;;5.09;100.00;102116.88;4943471;28;20058;-74
2022/01/16 11:27:27;;;;;;;67.45;33.63;;;;;;;5.12;100.00;102113.50;4939505;28;20038;-74
2022/01/16 11:29:56;;;;;;;63.90;34.75;;;;;;;5.14;100.00;102117.97;4974961;28;20050;-75
2022/01/16 11:32:25;;;;;;;65.55;33.08;;;;;;;5.17;100.00;102112.88;4956383;28;20051;-75
2022/01/16 11:34:55;;;;;;;58.53;32.42;;;;;;;5.20;100.00;102109.53;4953713;28;20043;-73
2022/01/16 11:37:24;;;;;;;60.60;32.15;;;;;;;5.21;100.00;102109.56;4926177;28;20066;-75
2022/01/16 11:39:52;;;;;;;58.95;32.00;;;;;;;5.25;100.00;102106.28;4920814;28;20284;-74
2022/01/16 11:42:27;;;;;;;60.78;31.48;;;;;;;5.27;100.00;102109.88;4952720;28;20067;-75
2022/01/16 11:44:55;;;;;;;67.40;33.20;;;;;;;5.31;100.00;102116.09;4961260;28;20451;-74
2022/01/16 11:47:24;;;;;;;57.22;29.88;;;;;;;5.33;100.00;102104.03;4957204;28;20043;-74
2022/01/16 11:50:06;;;;;;;54.65;30.00;;;;;;;5.36;100.00;102106.75;4956337;28;20081;-74
2022/01/16 11:52:41;;;;;;;62.50;32.03;;;;;;;5.38;100.00;102112.06;4968913;28;20050;-74
2022/01/16 11:55:12;;;;;;;55.38;30.40;;;;;;;5.38;100.00;102102.47;4943202;28;20435;-74
2022/01/16 11:57:56;;;;;;;55.67;25.05;;;;;;;5.41;100.00;102102.63;4951641;28;20067;-75
2022/01/16 12:00:40;;;;;;;60.42;29.02;;;;;;;5.43;100.00;102105.31;4950447;28;20416;-75
2022/01/16 12:03:35;;;;;;;51.72;26.85;;;;;;;5.47;100.00;102104.63;4958106;28;20077;-74
2022/01/16 12:06:30;;;;;;;50.20;26.48;;;;;;;5.50;100.00;102122.16;4970230;28;20065;-75
2022/01/16 12:09:00;;;;;;;44.88;24.48;;;;;;;5.53;100.00;102109.22;4955573;28;20606;-75